Time,TemperatureF,DewpointF,PressureIn,WindDirection,WindDirectionDegrees,WindSpeedMPH,WindSpeedGustMPH,Humidity,HourlyPrecipIn,Conditions,Clouds,dailyrainin,SoftwareType,DateUTC
2014-01-27 00:13:00,50.8,48.0,30.07,South,171,0.0,-999.0,89,-99.99,,,0.00,weatherlink.com 1.10,2014-01-27 08:13:00,
2014-01-27 00:28:00,50.7,48.0,30.07,South,171,0.0,-999.0,90,-99.99,,,0.00,weatherlink.com 1.10,2014-01-27 08:28:00,
2014-01-27 00:43:00,50.5,48.0,30.07,South,171,0.0,-999.0,90,-99.99,,,0.00,weatherlink.com 1.10,2014-01-27 08:43:00,
2014-01-27 00:58:00,50.4,48.0,30.07,South,171,0.0,-999.0,90,-99.99,,,0.00,weatherlink.com 1.10,2014-01-27 08:58:00,
2014-01-27 01:13:00,50.5,48.0,30.06,SE,138,1.0,-999.0,90,-99.99,,,0.00,weatherlink.com 1.10,2014-01-27 09:13:00,
2014-01-27 01:28:00,50.2,47.0,30.06,SSE,150,0.0,-999.0,90,-99.99,,,0.00,weatherlink.com 1.10,2014-01-27 09:28:00,
2014-01-27 01:43:00,50.1,48.0,30.06,ESE,117,0.0,-999.0,91,-99.99,,,0.00,weatherlink.com 1.10,2014-01-27 09:43:00,
2014-01-27 01:58:00,50.1,48.0,30.07,South,178,0.0,-999.0,91,-99.99,,,0.00,weatherlink.com 1.10,2014-01-27 09:58:00,
2014-01-27 02:13:00,49.9,47.0,30.07,South,173,0.0,-999.0,91,-99.99,,,0.00,weatherlink.com 1.10,2014-01-27 10:13:00,
2014-01-27 02:28:00,49.8,47.0,30.06,SW,231,0.0,-999.0,91,-99.99,,,0.00,weatherlink.com 1.10,2014-01-27 10:28:00,
2014-01-27 02:43:00,49.6,47.0,30.06,SSE,154,0.0,-999.0,91,-99.99,,,0.00,weatherlink.com 1.10,2014-01-27 10:43:00,
2014-01-27 02:58:00,49.2,47.0,30.07,SW,217,0.0,-999.0,90,-99.99,,,0.00,weatherlink.com 1.10,2014-01-27 10:58:00,
2014-01-27 03:13:00,48.5,46.0,30.07,SW,217,0.0,-999.0,90,-99.99,,,0.00,weatherlink.com 1.10,2014-01-27 11:13:00,
2014-01-27 03:29:00,47.9,45.0,30.07,SW,217,0.0,-999.0,90,-99.99,,,0.00,weatherlink.com 1.10,2014-01-27 11:29:00,
2014-01-27 03:44:00,47.9,46.0,30.07,SW,217,0.0,-999.0,91,-99.99,,,0.00,weatherlink.com 1.10,2014-01-27 11:44:00,
2014-01-27 03:59:00,48.5,46.0,30.07,SE,137,0.0,-999.0,91,-99.99,,,0.00,weatherlink.com 1.10,2014-01-27 11:59:00,
2014-01-27 04:14:00,48.9,46.0,30.08,SE,137,0.0,-999.0,91,-99.99,,,0.00,weatherlink.com 1.10,2014-01-27 12:14:00,
2014-01-27 04:29:00,49.1,47.0,30.09,SE,137,0.0,-999.0,91,-99.99,,,0.00,weatherlink.com 1.10,2014-01-27 12:29:00,
2014-01-27 04:44:00,49.2,47.0,30.09,SE,137,0.0,-999.0,91,-99.99,,,0.00,weatherlink.com 1.10,2014-01-27 12:44:00,
2014-01-27 04:59:00,49.2,47.0,30.09,SE,138,0.0,-999.0,91,-99.99,,,0.00,weatherlink.com 1.10,2014-01-27 12:59:00,
2014-01-27 05:14:00,49.4,47.0,30.09,SSW,213,0.0,-999.0,91,-99.99,,,0.00,weatherlink.com 1.10,2014-01-27 13:14:00,
2014-01-27 05:29:00,49.2,47.0,30.08,SSW,213,0.0,-999.0,91,-99.99,,,0.00,weatherlink.com 1.10,2014-01-27 13:29:00,
2014-01-27 05:44:00,49.2,47.0,30.08,SSW,213,0.0,-999.0,91,-99.99,,,0.00,weatherlink.com 1.10,2014-01-27 13:44:00,
2014-01-27 05:59:00,49.1,47.0,30.09,SSW,213,1.0,-999.0,91,-99.99,,,0.00,weatherlink.com 1.10,2014-01-27 13:59:00,
2014-01-27 06:14:00,48.9,46.0,30.09,SSE,153,0.0,-999.0,90,-99.99,,,0.00,weatherlink.com 1.10,2014-01-27 14:14:00,
2014-01-27 06:29:00,48.8,46.0,30.09,SSE,153,0.0,-999.0,90,-99.99,,,0.00,weatherlink.com 1.10,2014-01-27 14:29:00,
2014-01-27 06:44:00,48.6,46.0,30.09,SSE,157,0.0,-999.0,90,-99.99,,,0.00,weatherlink.com 1.10,2014-01-27 14:44:00,
2014-01-27 06:59:00,48.6,46.0,30.09,South,191,0.0,-999.0,90,-99.99,,,0.00,weatherlink.com 1.10,2014-01-27 14:59:00,
2014-01-27 07:14:00,48.6,46.0,30.11,SSE,165,0.0,-999.0,90,-99.99,,,0.00,weatherlink.com 1.10,2014-01-27 15:14:00,
2014-01-27 07:29:00,48.8,46.0,30.12,SSE,165,0.0,-999.0,90,-99.99,,,0.00,weatherlink.com 1.10,2014-01-27 15:29:00,
2014-01-27 07:44:00,48.8,46.0,30.14,SSE,155,0.0,-999.0,90,-99.99,,,0.00,weatherlink.com 1.10,2014-01-27 15:44:00,
2014-01-27 07:59:00,48.9,46.0,30.14,SE,131,1.0,-999.0,89,-99.99,,,0.00,weatherlink.com 1.10,2014-01-27 15:59:00,
2014-01-27 08:14:00,49.4,46.0,30.14,ESE,117,0.0,-999.0,89,-99.99,,,0.00,weatherlink.com 1.10,2014-01-27 16:14:00,
2014-01-27 08:29:00,49.6,46.0,30.14,ESE,117,0.0,-999.0,88,-99.99,,,0.00,weatherlink.com 1.10,2014-01-27 16:29:00,
2014-01-27 08:44:00,50.1,47.0,30.15,ESE,117,0.0,-999.0,88,-99.99,,,0.00,weatherlink.com 1.10,2014-01-27 16:44:00,
2014-01-27 08:59:00,50.4,47.0,30.15,ESE,119,1.0,-999.0,87,-99.99,,,0.00,weatherlink.com 1.10,2014-01-27 16:59:00,
2014-01-27 09:14:00,50.8,47.0,30.15,SE,146,0.0,-999.0,86,-99.99,,,0.00,weatherlink.com 1.10,2014-01-27 17:14:00,
2014-01-27 09:29:00,51.4,47.0,30.16,SSE,158,0.0,-999.0,85,-99.99,,,0.00,weatherlink.com 1.10,2014-01-27 17:29:00,
2014-01-27 09:44:00,52.0,47.0,30.17,ESE,111,0.0,-999.0,83,-99.99,,,0.00,weatherlink.com 1.10,2014-01-27 17:44:00,
2014-01-27 10:00:00,52.3,47.0,30.17,SSE,161,0.0,-999.0,82,-99.99,,,0.00,weatherlink.com 1.10,2014-01-27 18:00:00,
2014-01-27 10:14:00,53.2,47.0,30.18,SSW,196,0.0,-999.0,80,-99.99,,,0.00,weatherlink.com 1.10,2014-01-27 18:14:00,
2014-01-27 10:29:00,55.0,47.0,30.17,SSW,206,1.0,-999.0,74,-99.99,,,0.00,weatherlink.com 1.10,2014-01-27 18:29:00,
2014-01-27 10:45:00,55.7,47.0,30.18,SW,233,0.0,-999.0,72,-99.99,,,0.00,weatherlink.com 1.10,2014-01-27 18:45:00,
2014-01-27 11:00:00,56.7,47.0,30.18,South,186,0.0,-999.0,69,-99.99,,,0.00,weatherlink.com 1.10,2014-01-27 19:00:00,
2014-01-27 11:15:00,57.0,47.0,30.18,South,186,0.0,-999.0,69,-99.99,,,0.00,weatherlink.com 1.10,2014-01-27 19:15:00,
2014-01-27 11:30:00,57.0,46.0,30.18,SW,233,0.0,-999.0,68,-99.99,,,0.00,weatherlink.com 1.10,2014-01-27 19:30:00,
2014-01-27 11:44:00,57.0,48.0,30.17,SW,229,0.0,-999.0,71,-99.99,,,0.00,weatherlink.com 1.10,2014-01-27 19:44:00,
2014-01-27 12:00:00,57.3,48.0,30.15,SW,229,0.0,-999.0,70,-99.99,,,0.00,weatherlink.com 1.10,2014-01-27 20:00:00,
2014-01-27 12:15:00,58.9,47.0,30.14,SW,232,0.0,-999.0,66,-99.99,,,0.00,weatherlink.com 1.10,2014-01-27 20:15:00,
2014-01-27 12:30:00,60.4,48.0,30.14,SW,227,0.0,-999.0,63,-99.99,,,0.00,weatherlink.com 1.10,2014-01-27 20:30:00,
2014-01-27 12:45:00,62.1,46.0,30.12,South,188,1.0,-999.0,57,-99.99,,,0.00,weatherlink.com 1.10,2014-01-27 20:45:00,
2014-01-27 13:01:00,62.1,47.0,30.13,SW,233,0.0,-999.0,58,-99.99,,,0.00,weatherlink.com 1.10,2014-01-27 21:01:00,
2014-01-27 13:15:00,61.2,48.0,30.13,SW,221,0.0,-999.0,63,-99.99,,,0.00,weatherlink.com 1.10,2014-01-27 21:15:00,
2014-01-27 13:31:00,60.9,48.0,30.12,SW,227,0.0,-999.0,63,-99.99,,,0.00,weatherlink.com 1.10,2014-01-27 21:31:00,
2014-01-27 13:46:00,61.2,48.0,30.11,WSW,239,0.0,-999.0,62,-99.99,,,0.00,weatherlink.com 1.10,2014-01-27 21:46:00,
2014-01-27 14:01:00,61.5,48.0,30.12,WSW,238,0.0,-999.0,61,-99.99,,,0.00,weatherlink.com 1.10,2014-01-27 22:01:00,
2014-01-27 14:16:00,59.8,48.0,30.12,SSW,207,0.0,-999.0,66,-99.99,,,0.00,weatherlink.com 1.10,2014-01-27 22:16:00,
2014-01-27 14:31:00,59.0,48.0,30.11,SSE,167,0.0,-999.0,68,-99.99,,,0.00,weatherlink.com 1.10,2014-01-27 22:31:00,
2014-01-27 14:46:00,58.4,48.0,30.11,SSE,167,0.0,-999.0,69,-99.99,,,0.00,weatherlink.com 1.10,2014-01-27 22:46:00,
2014-01-27 15:01:00,57.8,49.0,30.12,SW,226,0.0,-999.0,72,-99.99,,,0.00,weatherlink.com 1.10,2014-01-27 23:01:00,
2014-01-27 15:16:00,56.9,49.0,30.12,WSW,246,0.0,-999.0,74,-99.99,,,0.00,weatherlink.com 1.10,2014-01-27 23:16:00,
2014-01-27 15:31:00,56.3,48.0,30.11,SW,222,0.0,-999.0,75,-99.99,,,0.00,weatherlink.com 1.10,2014-01-27 23:31:00,
2014-01-27 15:46:00,56.0,49.0,30.12,SSW,210,0.0,-999.0,77,-99.99,,,0.00,weatherlink.com 1.10,2014-01-27 23:46:00,
2014-01-27 16:01:00,55.7,49.0,30.12,SSW,213,0.0,-999.0,78,-99.99,,,0.00,weatherlink.com 1.10,2014-01-28 00:01:00,
2014-01-27 16:16:00,55.6,49.0,30.12,SSW,208,0.0,-999.0,79,-99.99,,,0.00,weatherlink.com 1.10,2014-01-28 00:16:00,
2014-01-27 16:31:00,55.3,49.0,30.12,SW,215,1.0,-999.0,80,-99.99,,,0.00,weatherlink.com 1.10,2014-01-28 00:31:00,
2014-01-27 16:46:00,54.8,49.0,30.12,SSW,204,0.0,-999.0,81,-99.99,,,0.00,weatherlink.com 1.10,2014-01-28 00:46:00,
2014-01-27 17:01:00,54.2,49.0,30.12,WSW,239,0.0,-999.0,82,-99.99,,,0.00,weatherlink.com 1.10,2014-01-28 01:01:00,
2014-01-27 17:16:00,53.9,49.0,30.12,South,190,0.0,-999.0,84,-99.99,,,0.00,weatherlink.com 1.10,2014-01-28 01:16:00,
2014-01-27 17:31:00,53.6,49.0,30.12,South,181,0.0,-999.0,84,-99.99,,,0.00,weatherlink.com 1.10,2014-01-28 01:31:00,
2014-01-27 17:46:00,53.5,49.0,30.14,South,181,0.0,-999.0,85,-99.99,,,0.00,weatherlink.com 1.10,2014-01-28 01:46:00,
2014-01-27 18:01:00,53.3,49.0,30.14,South,188,0.0,-999.0,85,-99.99,,,0.00,weatherlink.com 1.10,2014-01-28 02:01:00,
2014-01-27 18:16:00,53.2,49.0,30.13,SSE,150,0.0,-999.0,86,-99.99,,,0.00,weatherlink.com 1.10,2014-01-28 02:16:00,
2014-01-27 18:31:00,53.2,50.0,30.14,SSE,150,0.0,-999.0,87,-99.99,,,0.00,weatherlink.com 1.10,2014-01-28 02:31:00,
2014-01-27 18:46:00,53.1,49.0,30.14,SSE,150,0.0,-999.0,87,-99.99,,,0.00,weatherlink.com 1.10,2014-01-28 02:46:00,
2014-01-27 19:01:00,53.1,49.0,30.14,SSE,150,0.0,-999.0,87,-99.99,,,0.00,weatherlink.com 1.10,2014-01-28 03:01:00,
2014-01-27 19:17:00,52.8,49.0,30.15,SSE,150,0.0,-999.0,87,-99.99,,,0.00,weatherlink.com 1.10,2014-01-28 03:17:00,
2014-01-27 19:32:00,52.6,49.0,30.15,SSE,150,0.0,-999.0,87,-99.99,,,0.00,weatherlink.com 1.10,2014-01-28 03:32:00,
2014-01-27 19:47:00,52.6,49.0,30.14,SSE,150,0.0,-999.0,88,-99.99,,,0.00,weatherlink.com 1.10,2014-01-28 03:47:00,
2014-01-27 20:02:00,52.5,49.0,30.14,SSE,150,0.0,-999.0,88,-99.99,,,0.00,weatherlink.com 1.10,2014-01-28 04:02:00,
2014-01-27 20:17:00,52.3,49.0,30.14,SSE,150,0.0,-999.0,88,-99.99,,,0.00,weatherlink.com 1.10,2014-01-28 04:17:00,
2014-01-27 20:32:00,52.3,49.0,30.14,SSE,150,0.0,-999.0,88,-99.99,,,0.00,weatherlink.com 1.10,2014-01-28 04:32:00,
2014-01-27 20:47:00,52.3,49.0,30.15,SSE,150,0.0,-999.0,88,-99.99,,,0.00,weatherlink.com 1.10,2014-01-28 04:47:00,
2014-01-27 21:02:00,52.3,49.0,30.17,SSE,150,0.0,-999.0,89,-99.99,,,0.00,weatherlink.com 1.10,2014-01-28 05:02:00,
2014-01-27 21:17:00,52.5,49.0,30.18,SSE,150,0.0,-999.0,89,-99.99,,,0.00,weatherlink.com 1.10,2014-01-28 05:17:00,
2014-01-27 21:32:00,52.8,50.0,30.17,South,172,0.0,-999.0,89,-99.99,,,0.00,weatherlink.com 1.10,2014-01-28 05:32:00,
2014-01-27 21:47:00,52.8,50.0,30.17,South,172,0.0,-999.0,89,-99.99,,,0.00,weatherlink.com 1.10,2014-01-28 05:47:00,
2014-01-27 22:02:00,52.8,49.0,30.17,SE,136,0.0,-999.0,88,-99.99,,,0.00,weatherlink.com 1.10,2014-01-28 06:02:00,
2014-01-27 22:17:00,52.6,49.0,30.17,SE,136,0.0,-999.0,88,-99.99,,,0.00,weatherlink.com 1.10,2014-01-28 06:17:00,
2014-01-27 22:32:00,52.5,49.0,30.17,SE,136,0.0,-999.0,88,-99.99,,,0.00,weatherlink.com 1.10,2014-01-28 06:32:00,
2014-01-27 22:47:00,52.2,49.0,30.17,SE,136,0.0,-999.0,88,-99.99,,,0.00,weatherlink.com 1.10,2014-01-28 06:47:00,
2014-01-27 23:02:00,51.9,49.0,30.18,SE,136,0.0,-999.0,89,-99.99,,,0.00,weatherlink.com 1.10,2014-01-28 07:02:00,
2014-01-27 23:17:00,51.6,49.0,30.17,SE,136,0.0,-999.0,89,-99.99,,,0.00,weatherlink.com 1.10,2014-01-28 07:17:00,
2014-01-27 23:32:00,51.4,48.0,30.17,SE,136,0.0,-999.0,89,-99.99,,,0.00,weatherlink.com 1.10,2014-01-28 07:32:00,
2014-01-27 23:47:00,51.6,49.0,30.18,SE,136,0.0,-999.0,90,-99.99,,,0.00,weatherlink.com 1.10,2014-01-28 07:47:00,